createdAt,value
2023-05-18T00:01:25.535Z,10.27
2023-05-18T00:03:54.217Z,15.47
2023-05-18T00:06:22.486Z,6.57
2023-05-18T00:08:49.260Z,6.33
2023-05-18T00:11:16.223Z,9.53
2023-05-18T00:13:43.288Z,12.23
2023-05-18T00:16:12.017Z,13.57
2023-05-18T00:18:38.727Z,6.97
2023-05-18T00:21:06.374Z,8.93
2023-05-18T00:23:33.246Z,7.70
2023-05-18T00:26:01.430Z,7.53
2023-05-18T00:28:29.390Z,8.93
2023-05-18T00:30:56.872Z,7.47
2023-05-18T00:33:23.734Z,12.63
2023-05-18T00:35:50.602Z,6.47
2023-05-18T00:38:17.916Z,6.23
2023-05-18T00:40:44.773Z,5.67
2023-05-18T00:43:12.483Z,8.23
2023-05-18T00:45:39.957Z,8.17
2023-05-18T00:48:07.312Z,8.30
2023-05-18T00:50:34.908Z,5.07
2023-05-18T00:53:01.795Z,9.90
2023-05-18T00:55:29.174Z,7.00
2023-05-18T00:58:02.391Z,11.57
2023-05-18T01:00:29.605Z,10.00
2023-05-18T01:02:57.330Z,10.20
2023-05-18T01:05:24.341Z,6.00
2023-05-18T01:07:51.304Z,4.00
2023-05-18T01:10:20.644Z,5.40
2023-05-18T01:12:57.297Z,18.77
2023-05-18T01:15:34.832Z,7.23
2023-05-18T01:18:05.349Z,6.30
2023-05-18T01:20:45.975Z,9.10
2023-05-18T01:23:45.580Z,7.97
2023-05-18T01:26:17.097Z,9.47
2023-05-18T01:28:46.768Z,8.53
2023-05-18T01:31:16.264Z,8.50
2023-05-18T01:33:44.470Z,7.10
2023-05-18T01:36:11.575Z,9.83
2023-05-18T01:38:41.050Z,5.47
2023-05-18T01:41:18.156Z,7.13
2023-05-18T01:44:18.525Z,6.90
2023-05-18T01:46:54.735Z,4.60
2023-05-18T01:49:24.511Z,7.53
2023-05-18T01:51:53.401Z,6.70
2023-05-18T01:54:22.775Z,5.47
2023-05-18T01:56:52.097Z,10.33
2023-05-18T01:59:19.076Z,5.50
2023-05-18T02:01:45.893Z,8.67
2023-05-18T02:04:12.786Z,8.23
2023-05-18T02:06:39.758Z,9.43
2023-05-18T02:09:09.009Z,5.73
2023-05-18T02:11:35.893Z,7.67
2023-05-18T02:14:02.944Z,4.70
2023-05-18T02:16:29.787Z,5.73
2023-05-18T02:18:58.113Z,8.20
2023-05-18T02:21:25.968Z,6.00
2023-05-18T02:23:52.700Z,9.50
2023-05-18T02:26:19.474Z,10.77
2023-05-18T02:28:53.032Z,6.73
2023-05-18T02:31:19.918Z,6.40
2023-05-18T02:33:46.693Z,9.57
2023-05-18T02:36:14.386Z,7.60
2023-05-18T02:38:43.841Z,9.90
2023-05-18T02:41:12.082Z,3.37
2023-05-18T02:43:39.019Z,6.37
2023-05-18T02:46:07.557Z,8.73
2023-05-18T02:48:34.525Z,6.00
2023-05-18T02:51:01.263Z,12.33
2023-05-18T02:53:27.982Z,8.33
2023-05-18T02:56:03.287Z,8.80
2023-05-18T02:58:39.134Z,10.77
2023-05-18T03:01:39.986Z,16.93
2023-05-18T03:04:07.347Z,7.83
2023-05-18T03:06:38.340Z,8.93
2023-05-18T03:09:05.200Z,10.17
2023-05-18T03:11:36.687Z,6.17
2023-05-18T03:14:03.704Z,8.87
2023-05-18T03:16:30.533Z,6.60
2023-05-18T03:19:02.297Z,7.57
2023-05-18T03:21:36.110Z,5.03
2023-05-18T03:24:03.594Z,4.13
2023-05-18T03:26:32.067Z,8.60
2023-05-18T03:28:59.556Z,5.67
2023-05-18T03:31:27.127Z,5.43
2023-05-18T03:33:56.257Z,6.67
2023-05-18T03:36:25.336Z,5.03
2023-05-18T03:38:52.833Z,6.53
2023-05-18T03:41:19.973Z,7.63
2023-05-18T03:43:46.729Z,4.17
2023-05-18T03:46:13.697Z,7.17
2023-05-18T03:48:40.685Z,8.97
2023-05-18T03:51:07.763Z,5.73
2023-05-18T03:53:36.237Z,6.63
2023-05-18T03:56:03.104Z,6.17
2023-05-18T03:58:30.128Z,8.10
2023-05-18T04:00:58.938Z,12.03
2023-05-18T04:03:27.090Z,6.10
2023-05-18T04:05:55.666Z,10.57
2023-05-18T04:08:25.461Z,6.13
2023-05-18T04:10:52.553Z,4.23
2023-05-18T04:13:19.256Z,6.73
2023-05-18T04:15:46.001Z,9.23
2023-05-18T04:18:13.683Z,5.87
2023-05-18T04:20:42.609Z,8.77
2023-05-18T04:23:10.111Z,10.60
2023-05-18T04:25:39.300Z,7.63
2023-05-18T04:28:07.272Z,6.33
2023-05-18T04:30:35.405Z,8.20
2023-05-18T04:33:04.116Z,10.30
2023-05-18T04:35:31.982Z,8.13
2023-05-18T04:37:58.945Z,13.40
2023-05-18T04:40:25.897Z,5.30
2023-05-18T04:42:52.950Z,6.80
2023-05-18T04:45:26.101Z,7.67
2023-05-18T04:47:54.760Z,10.33
2023-05-18T04:50:26.251Z,8.97
2023-05-18T04:52:53.997Z,5.63
2023-05-18T04:55:27.491Z,6.97
2023-05-18T04:58:03.107Z,5.93
2023-05-18T05:00:30.995Z,6.17
2023-05-18T05:02:59.355Z,7.90
2023-05-18T05:05:28.567Z,7.37
2023-05-18T05:07:57.492Z,9.43
2023-05-18T05:10:25.508Z,5.83
2023-05-18T05:12:52.677Z,5.37
2023-05-18T05:15:20.398Z,7.03
2023-05-18T05:17:49.888Z,8.80
2023-05-18T05:20:17.237Z,10.20
2023-05-18T05:22:44.119Z,11.03
2023-05-18T05:25:13.129Z,8.53
2023-05-18T05:27:39.824Z,10.97
2023-05-18T05:30:07.430Z,6.33
2023-05-18T05:32:36.716Z,5.20
2023-05-18T05:35:05.362Z,5.20
2023-05-18T05:37:32.675Z,6.17
2023-05-18T05:39:59.507Z,12.43
2023-05-18T05:42:27.375Z,7.50
2023-05-18T05:44:54.133Z,7.17
2023-05-18T05:47:21.537Z,7.33
2023-05-18T05:49:49.379Z,10.40
2023-05-18T05:52:16.692Z,8.37
2023-05-18T05:54:43.549Z,4.03
2023-05-18T05:57:11.435Z,6.77
2023-05-18T05:59:38.394Z,6.20
2023-05-18T06:02:05.630Z,8.00
2023-05-18T06:04:33.103Z,6.87
2023-05-18T06:07:00.823Z,7.23
2023-05-18T06:09:28.932Z,6.00
2023-05-18T06:11:56.595Z,4.47
2023-05-18T06:14:25.013Z,6.60
2023-05-18T06:16:53.435Z,5.83
2023-05-18T06:19:20.388Z,4.43
2023-05-18T06:21:47.244Z,7.83
2023-05-18T06:24:14.386Z,5.13
2023-05-18T06:26:53.646Z,5.57
2023-05-18T06:29:36.428Z,8.63
2023-05-18T06:32:13.597Z,3.73
2023-05-18T06:34:45.719Z,7.03
2023-05-18T06:37:12.994Z,3.43
2023-05-18T06:39:40.308Z,5.43
2023-05-18T06:42:07.551Z,5.97
2023-05-18T06:44:35.870Z,5.73
2023-05-18T06:47:07.980Z,5.00
2023-05-18T06:49:34.784Z,6.67
2023-05-18T06:52:01.475Z,5.47
2023-05-18T06:54:32.089Z,9.13
2023-05-18T06:56:59.883Z,6.17
2023-05-18T06:59:26.654Z,3.73
2023-05-18T07:01:54.181Z,7.60
2023-05-18T07:04:21.303Z,5.43
2023-05-18T07:06:48.796Z,6.30
2023-05-18T07:09:15.729Z,5.27
2023-05-18T07:11:42.685Z,8.87
2023-05-18T07:14:09.864Z,7.00
2023-05-18T07:16:37.065Z,8.73
2023-05-18T07:19:04.954Z,6.53
2023-05-18T07:21:31.924Z,5.23
2023-05-18T07:23:58.986Z,8.10
2023-05-18T07:26:26.154Z,7.20
2023-05-18T07:28:53.019Z,9.83
2023-05-18T07:31:21.757Z,9.63
2023-05-18T07:33:49.824Z,10.40
2023-05-18T07:36:16.914Z,7.00
2023-05-18T07:38:44.114Z,6.33
2023-05-18T07:41:11.006Z,32.03
2023-05-18T07:43:38.001Z,5.70
2023-05-18T07:46:04.810Z,6.17
2023-05-18T07:48:31.576Z,8.80
2023-05-18T07:50:58.440Z,12.07
2023-05-18T07:53:25.239Z,67.37
2023-05-18T07:55:53.076Z,97.03
2023-05-18T07:58:19.955Z,19.93
2023-05-18T08:00:46.803Z,6.97
2023-05-18T08:03:13.687Z,16.57
2023-05-18T08:05:40.753Z,12.83
2023-05-18T08:08:08.180Z,20.37
2023-05-18T08:10:35.025Z,44.30
2023-05-18T08:13:01.887Z,14.37
2023-05-18T08:15:29.189Z,21.03
2023-05-18T08:17:57.102Z,8.20
2023-05-18T08:20:26.185Z,27.00
2023-05-18T08:22:52.962Z,12.17
2023-05-18T08:25:19.870Z,18.70
2023-05-18T08:27:46.651Z,6.50
2023-05-18T08:30:13.943Z,9.70
2023-05-18T08:32:40.943Z,14.47
2023-05-18T08:35:09.170Z,6.10
2023-05-18T08:37:37.251Z,7.97
2023-05-18T08:40:07.987Z,19.50
2023-05-18T08:42:49.817Z,25.23
2023-05-18T08:45:41.600Z,15.90
2023-05-18T08:48:11.497Z,11.17
2023-05-18T08:50:41.762Z,25.73
2023-05-18T08:53:10.673Z,13.37
2023-05-18T08:55:37.928Z,6.67
2023-05-18T08:58:09.182Z,5.67
2023-05-18T09:00:36.925Z,8.50
2023-05-18T09:03:05.311Z,6.13
2023-05-18T09:05:32.549Z,6.83
2023-05-18T09:08:00.536Z,8.60
2023-05-18T09:10:28.048Z,7.67
2023-05-18T09:12:56.202Z,6.50
2023-05-18T09:15:25.289Z,9.23
2023-05-18T09:17:52.493Z,7.60
2023-05-18T09:20:19.953Z,13.23
2023-05-18T09:22:49.374Z,10.10
2023-05-18T09:25:17.662Z,12.37
2023-05-18T09:27:44.457Z,17.20
2023-05-18T09:30:11.973Z,13.30
2023-05-18T09:32:39.164Z,12.20
2023-05-18T09:35:07.543Z,19.67
2023-05-18T09:37:35.286Z,9.93
2023-05-18T09:40:05.345Z,16.87
2023-05-18T09:42:44.095Z,14.97
2023-05-18T09:45:25.586Z,20.07
2023-05-18T09:47:53.628Z,8.57
2023-05-18T09:50:21.244Z,25.87
2023-05-18T09:52:49.314Z,6.47
2023-05-18T09:55:17.525Z,6.27
2023-05-18T09:57:46.425Z,5.90
2023-05-18T10:00:19.165Z,6.43
2023-05-18T10:02:52.640Z,5.23
2023-05-18T10:05:20.573Z,13.77
2023-05-18T10:07:48.441Z,9.07
2023-05-18T10:10:19.541Z,6.97
2023-05-18T10:12:47.980Z,5.13
2023-05-18T10:15:16.329Z,5.83
2023-05-18T10:17:45.223Z,7.30
2023-05-18T10:20:15.893Z,7.47
2023-05-18T10:22:46.017Z,8.47
2023-05-18T10:25:22.619Z,7.50
2023-05-18T10:27:55.493Z,5.97
2023-05-18T10:30:22.982Z,5.10
2023-05-18T10:32:51.351Z,8.20
2023-05-18T10:35:18.781Z,7.33
2023-05-18T10:37:50.122Z,5.60
2023-05-18T10:40:17.649Z,7.23
2023-05-18T10:42:46.306Z,3.37
2023-05-18T10:45:15.596Z,8.07
2023-05-18T10:47:44.171Z,11.77
2023-05-18T10:50:11.677Z,9.50
2023-05-18T10:52:38.442Z,22.97
2023-05-18T10:55:06.844Z,7.80
2023-05-18T10:57:40.771Z,10.10
2023-05-18T11:00:09.394Z,97.67
2023-05-18T11:02:42.201Z,11.00
2023-05-18T11:05:12.437Z,24.53
2023-05-18T11:07:39.261Z,14.80
2023-05-18T11:10:12.415Z,30.07
2023-05-18T11:12:40.784Z,14.07
2023-05-18T11:15:08.260Z,7.83
2023-05-18T11:17:34.938Z,15.23
2023-05-18T11:20:07.871Z,7.10
2023-05-18T11:22:56.756Z,9.00
2023-05-18T11:25:26.156Z,6.77
2023-05-18T11:27:53.880Z,9.10
2023-05-18T11:30:44.961Z,5.70
2023-05-18T11:33:14.485Z,4.00
2023-05-18T11:36:04.553Z,5.00
2023-05-18T11:38:55.147Z,3.00
2023-05-18T11:41:35.254Z,8.23
2023-05-18T11:44:16.837Z,8.27
2023-05-18T11:46:56.076Z,4.53
2023-05-18T11:49:28.429Z,6.57
2023-05-18T11:52:18.665Z,5.67
2023-05-18T11:54:56.398Z,4.37
2023-05-18T11:57:34.807Z,3.80
2023-05-18T12:00:10.228Z,4.13
2023-05-18T12:02:43.827Z,6.93
2023-05-18T12:05:10.793Z,6.03
2023-05-18T12:07:39.235Z,4.50
2023-05-18T12:10:10.955Z,4.27
2023-05-18T12:12:38.140Z,5.77
2023-05-18T12:15:06.863Z,8.33
2023-05-18T12:17:43.106Z,6.83
2023-05-18T12:20:14.568Z,8.10
2023-05-18T12:22:45.201Z,7.67
2023-05-18T12:25:12.039Z,4.83
2023-05-18T12:27:40.681Z,8.83
2023-05-18T12:30:14.602Z,6.23
2023-05-18T12:32:57.641Z,6.07
2023-05-18T12:35:25.802Z,4.23
2023-05-18T12:37:55.925Z,3.87
2023-05-18T12:40:23.256Z,6.13
2023-05-18T12:42:56.850Z,7.97
2023-05-18T12:45:27.801Z,6.63
2023-05-18T12:47:55.508Z,7.50
2023-05-18T12:50:27.664Z,5.23
2023-05-18T12:52:56.153Z,8.13
2023-05-18T12:55:25.004Z,4.83
2023-05-18T12:58:15.864Z,5.33
2023-05-18T13:00:47.805Z,5.50
2023-05-18T13:03:16.872Z,7.03
2023-05-18T13:05:46.119Z,6.53
2023-05-18T13:08:19.112Z,8.40
2023-05-18T13:10:46.247Z,5.13
2023-05-18T13:13:16.660Z,5.27
2023-05-18T13:15:44.097Z,37.60
2023-05-18T13:18:11.779Z,7.10
2023-05-18T13:20:45.133Z,18.13
2023-05-18T13:23:14.017Z,9.17
2023-05-18T13:25:41.286Z,47.73
2023-05-18T13:28:10.560Z,123.10
2023-05-18T13:30:38.298Z,12.47
2023-05-18T13:33:08.159Z,14.23
2023-05-18T13:35:40.301Z,5.10
2023-05-18T13:38:06.844Z,9.57
2023-05-18T13:40:33.455Z,4.57
2023-05-18T13:43:00.126Z,12.87
2023-05-18T13:45:26.652Z,7.23
2023-05-18T13:47:56.900Z,8.00
2023-05-18T13:50:23.908Z,8.07
2023-05-18T13:52:50.586Z,6.23
2023-05-18T13:55:17.138Z,9.70
2023-05-18T13:57:44.971Z,6.13
2023-05-18T14:00:13.457Z,4.60
2023-05-18T14:02:41.540Z,8.15
2023-05-18T14:05:09.665Z,4.45
2023-05-18T14:07:41.488Z,5.35
2023-05-18T14:10:09.965Z,6.07
2023-05-18T14:12:37.236Z,5.10
2023-05-18T14:15:05.673Z,6.05
2023-05-18T14:17:35.521Z,5.47
2023-05-18T14:20:02.721Z,6.55
2023-05-18T14:22:30.584Z,5.30
2023-05-18T14:24:57.590Z,4.63
2023-05-18T14:27:24.182Z,6.63
2023-05-18T14:29:51.132Z,4.32
2023-05-18T14:32:20.686Z,5.40
2023-05-18T14:34:51.561Z,3.28
2023-05-18T14:37:18.866Z,2.30
2023-05-18T14:39:45.726Z,8.57
2023-05-18T14:42:12.251Z,7.32
2023-05-18T14:44:38.810Z,5.80
2023-05-18T14:47:05.728Z,6.93
2023-05-18T14:49:32.328Z,6.70
2023-05-18T14:51:58.931Z,2.40
2023-05-18T14:54:25.678Z,6.05
2023-05-18T14:56:52.342Z,4.75
2023-05-18T14:59:18.970Z,8.48
2023-05-18T15:01:45.694Z,20.80
2023-05-18T15:04:14.570Z,102.95
2023-05-18T15:06:41.439Z,33.00
2023-05-18T15:09:08.362Z,34.22
2023-05-18T15:11:34.968Z,32.97
2023-05-18T15:14:01.540Z,13.07
2023-05-18T15:16:28.249Z,5.60
2023-05-18T15:18:55.036Z,4.55
2023-05-18T15:21:21.775Z,5.93
2023-05-18T15:23:48.311Z,6.40
2023-05-18T15:26:14.957Z,4.88
2023-05-18T15:28:43.369Z,7.90
2023-05-18T15:31:09.909Z,4.30
2023-05-18T15:33:41.819Z,4.68
2023-05-18T15:36:08.852Z,6.88
2023-05-18T15:38:35.751Z,6.15
2023-05-18T15:41:02.343Z,4.40
2023-05-18T15:43:30.412Z,6.90
2023-05-18T15:45:58.108Z,6.38
2023-05-18T15:48:24.794Z,6.35
2023-05-18T15:50:51.375Z,11.02
2023-05-18T15:53:17.929Z,31.15
2023-05-18T15:55:44.486Z,86.63
2023-05-18T15:58:12.940Z,234.38
2023-05-18T16:00:39.520Z,104.55
2023-05-18T16:03:06.247Z,38.83
2023-05-18T16:05:32.915Z,108.47
2023-05-18T16:07:59.729Z,175.55
2023-05-18T16:10:26.238Z,190.02
2023-05-18T16:12:52.772Z,160.05
2023-05-18T16:15:24.154Z,198.68
2023-05-18T16:17:50.851Z,207.32
2023-05-18T16:20:18.459Z,94.03
2023-05-18T16:22:46.718Z,136.48
2023-05-18T16:25:13.351Z,18.33
2023-05-18T16:27:39.918Z,72.45
2023-05-18T16:30:07.253Z,24.80
2023-05-18T16:32:33.853Z,49.45
2023-05-18T16:35:01.027Z,93.45
2023-05-18T16:37:27.977Z,42.28
2023-05-18T16:39:54.587Z,25.63
2023-05-18T16:42:22.775Z,11.10
2023-05-18T16:44:49.355Z,6.07
2023-05-18T16:47:16.058Z,12.48
2023-05-18T16:49:45.266Z,9.05
2023-05-18T16:52:11.861Z,7.68
2023-05-18T16:54:38.426Z,5.75
2023-05-18T16:57:05.216Z,4.90
2023-05-18T16:59:34.221Z,4.72
2023-05-18T17:02:01.431Z,7.82
2023-05-18T17:04:28.119Z,6.95
2023-05-18T17:06:54.771Z,4.65
2023-05-18T17:09:21.310Z,6.45
2023-05-18T17:11:48.381Z,7.72
2023-05-18T17:14:15.084Z,8.43
2023-05-18T17:16:41.701Z,8.82
2023-05-18T17:19:08.364Z,10.10
2023-05-18T17:21:35.058Z,8.32
2023-05-18T17:24:01.628Z,8.77
2023-05-18T17:26:30.606Z,6.50
2023-05-18T17:28:57.374Z,5.03
2023-05-18T17:31:24.077Z,4.45
2023-05-18T17:33:50.841Z,4.05
2023-05-18T17:36:18.309Z,6.38
2023-05-18T17:38:45.163Z,10.70
2023-05-18T17:41:11.943Z,4.47
2023-05-18T17:43:38.670Z,6.50
2023-05-18T17:46:05.391Z,5.20
2023-05-18T17:48:31.998Z,3.67
2023-05-18T17:50:58.807Z,7.65
2023-05-18T17:53:25.307Z,5.05
2023-05-18T17:55:52.649Z,5.20
2023-05-18T17:58:19.692Z,5.40
2023-05-18T18:00:46.371Z,4.63
2023-05-18T18:03:13.317Z,6.88
2023-05-18T18:05:40.242Z,9.25
2023-05-18T18:08:07.122Z,6.80
2023-05-18T18:10:34.682Z,6.32
2023-05-18T18:13:03.315Z,6.13
2023-05-18T18:15:30.096Z,6.72
2023-05-18T18:18:00.356Z,5.13
2023-05-18T18:20:27.260Z,6.35
2023-05-18T18:22:53.980Z,9.20
2023-05-18T18:25:20.741Z,6.25
2023-05-18T18:27:47.448Z,5.47
2023-05-18T18:30:14.773Z,6.75
2023-05-18T18:32:41.537Z,7.63
2023-05-18T18:35:09.029Z,7.15
2023-05-18T18:37:36.132Z,5.90
2023-05-18T18:40:03.012Z,8.27
2023-05-18T18:42:30.913Z,8.03
2023-05-18T18:44:57.696Z,7.13
2023-05-18T18:47:25.023Z,8.63
2023-05-18T18:49:51.810Z,8.73
2023-05-18T18:52:18.555Z,4.70
2023-05-18T18:54:45.366Z,5.67
2023-05-18T18:57:12.329Z,4.80
2023-05-18T18:59:39.373Z,6.80
2023-05-18T19:02:06.361Z,6.25
2023-05-18T19:04:33.253Z,9.27
2023-05-18T19:07:02.918Z,5.43
2023-05-18T19:09:32.676Z,5.70
2023-05-18T19:11:59.456Z,8.20
2023-05-18T19:14:26.474Z,8.43
2023-05-18T19:16:53.686Z,6.47
2023-05-18T19:19:20.481Z,8.40
2023-05-18T19:21:47.200Z,6.87
2023-05-18T19:24:13.980Z,6.27
2023-05-18T19:26:40.722Z,5.50
2023-05-18T19:29:07.389Z,5.13
2023-05-18T19:31:35.756Z,6.50
2023-05-18T19:34:02.770Z,4.10
2023-05-18T19:36:29.517Z,6.93
2023-05-18T19:38:56.281Z,6.30
2023-05-18T19:41:24.622Z,10.47
2023-05-18T19:43:51.692Z,7.00
2023-05-18T19:46:19.158Z,6.67
2023-05-18T19:48:46.652Z,7.27
2023-05-18T19:51:13.329Z,6.13
2023-05-18T19:53:40.279Z,10.40
2023-05-18T19:56:06.977Z,5.37
2023-05-18T19:58:33.727Z,4.83
2023-05-18T20:01:00.622Z,10.17
2023-05-18T20:03:27.623Z,6.03
2023-05-18T20:05:56.048Z,6.63
2023-05-18T20:08:22.888Z,10.00
2023-05-18T20:10:49.822Z,6.77
2023-05-18T20:13:16.632Z,8.33
2023-05-18T20:15:43.756Z,11.93
2023-05-18T20:18:10.751Z,10.13
2023-05-18T20:20:37.645Z,7.93
2023-05-18T20:23:06.737Z,4.63
2023-05-18T20:25:35.191Z,10.67
2023-05-18T20:28:03.531Z,5.23
2023-05-18T20:30:30.706Z,8.43
2023-05-18T20:33:03.656Z,6.57
2023-05-18T20:35:30.564Z,6.97
2023-05-18T20:37:59.649Z,6.77
2023-05-18T20:40:27.803Z,14.13
2023-05-18T20:42:54.542Z,7.70
2023-05-18T20:45:22.706Z,10.57
2023-05-18T20:47:52.867Z,11.47
2023-05-18T20:50:21.121Z,7.90
2023-05-18T20:52:47.963Z,12.67
2023-05-18T20:55:14.914Z,10.70
2023-05-18T20:57:46.131Z,13.50
2023-05-18T21:00:13.300Z,19.37
2023-05-18T21:02:41.574Z,14.00
2023-05-18T21:05:08.853Z,12.57
2023-05-18T21:07:37.827Z,7.37
2023-05-18T21:10:05.101Z,9.33
2023-05-18T21:12:32.618Z,9.37
2023-05-18T21:14:59.385Z,11.77
2023-05-18T21:17:26.280Z,10.50
2023-05-18T21:19:53.150Z,8.27
2023-05-18T21:22:19.962Z,12.50
2023-05-18T21:24:46.624Z,11.93
2023-05-18T21:27:13.444Z,15.83
2023-05-18T21:29:40.217Z,20.30
2023-05-18T21:32:07.172Z,25.97
2023-05-18T21:34:33.964Z,13.80
2023-05-18T21:37:01.193Z,15.37
2023-05-18T21:39:27.934Z,13.97
2023-05-18T21:41:54.779Z,21.73
2023-05-18T21:44:21.473Z,16.80
2023-05-18T21:46:48.354Z,11.33
2023-05-18T21:49:15.032Z,12.23
2023-05-18T21:51:41.678Z,11.63
2023-05-18T21:54:08.457Z,7.13
2023-05-18T21:56:36.696Z,11.20
2023-05-18T21:59:03.512Z,13.53
2023-05-18T22:01:30.393Z,13.03
2023-05-18T22:03:57.220Z,12.10
2023-05-18T22:06:24.050Z,8.53
2023-05-18T22:08:51.481Z,14.00
2023-05-18T22:11:18.289Z,5.33
2023-05-18T22:13:44.971Z,5.90
2023-05-18T22:16:11.959Z,9.47
2023-05-18T22:18:38.798Z,14.03
2023-05-18T22:21:05.705Z,9.07
2023-05-18T22:23:32.372Z,8.63
2023-05-18T22:25:59.052Z,7.00
2023-05-18T22:28:25.932Z,7.03
2023-05-18T22:30:52.773Z,6.53
2023-05-18T22:33:20.948Z,6.63
2023-05-18T22:35:50.662Z,5.30
2023-05-18T22:38:17.902Z,6.90
2023-05-18T22:40:45.411Z,7.87
2023-05-18T22:43:12.336Z,5.07
2023-05-18T22:45:39.165Z,6.07
2023-05-18T22:48:06.315Z,5.50
2023-05-18T22:50:33.407Z,4.23
2023-05-18T22:53:02.301Z,4.17
2023-05-18T22:55:29.110Z,8.03
2023-05-18T22:57:55.805Z,3.53
2023-05-18T23:00:22.882Z,6.73
2023-05-18T23:02:49.674Z,4.83
2023-05-18T23:05:17.169Z,8.00
2023-05-18T23:07:44.126Z,6.97
2023-05-18T23:10:12.164Z,3.40
2023-05-18T23:12:39.578Z,6.47
2023-05-18T23:15:07.413Z,6.40
2023-05-18T23:17:54.808Z,5.80
2023-05-18T23:20:22.864Z,4.57
2023-05-18T23:22:49.590Z,16.47
2023-05-18T23:25:16.522Z,60.50
2023-05-18T23:27:44.820Z,14.77
2023-05-18T23:30:11.825Z,84.03
2023-05-18T23:32:39.193Z,19.87
2023-05-18T23:35:06.590Z,9.43
2023-05-18T23:37:35.081Z,13.30
2023-05-18T23:40:04.659Z,12.57
2023-05-18T23:42:33.451Z,18.87
2023-05-18T23:45:00.735Z,4.53
2023-05-18T23:47:27.702Z,4.93
2023-05-18T23:49:54.893Z,10.27
2023-05-18T23:52:24.873Z,5.67
2023-05-18T23:54:55.501Z,8.07
2023-05-18T23:57:25.465Z,5.50
2023-05-18T23:59:52.472Z,8.83
